Terminal Aerodrome Forecast
Issued by NWS Wakefield, VA

Home | Current Version | Previous Version | Text Only | Print | Product List | Glossary On
Versions: 1 2 3 4 5 6 7 8 9 10 11 12 13 14 15 16 17 18 19 20 21
000
FTUS41 KAKQ 290126 AAA
TAFECG
TAF AMD
KECG 290126Z 2901/2924 03009KT 1SM BR OVC002
      TEMPO 2902/2905 3SM SHRA OVC004
     FM290500 05008KT 2SM BR OVC002
     FM291200 02006KT P6SM OVC008
     FM291600 01007KT P6SM OVC025=

USA.gov is the U.S. government's official web portal to all federal, state and local government web resources and services.